sensor_id;sensor_type;location;lat;lon;timestamp;P1;durP1;ratioP1;P2;durP2;ratioP2
69841;SDS011;57138;51.326;-0.068;2023-04-08T00:00:09;11.35;;;4.90;;
69841;SDS011;57138;51.326;-0.068;2023-04-08T00:02:35;10.43;;;6.10;;
69841;SDS011;57138;51.326;-0.068;2023-04-08T00:05:01;12.40;;;6.10;;
69841;SDS011;57138;51.326;-0.068;2023-04-08T00:07:27;16.98;;;6.45;;
69841;SDS011;57138;51.326;-0.068;2023-04-08T00:09:53;16.88;;;6.53;;
69841;SDS011;57138;51.326;-0.068;2023-04-08T00:12:18;18.50;;;7.65;;
69841;SDS011;57138;51.326;-0.068;2023-04-08T00:14:44;21.17;;;8.68;;
69841;SDS011;57138;51.326;-0.068;2023-04-08T00:17:10;17.92;;;7.53;;
69841;SDS011;57138;51.326;-0.068;2023-04-08T00:19:36;13.90;;;6.53;;
69841;SDS011;57138;51.326;-0.068;2023-04-08T00:22:01;15.77;;;7.35;;
69841;SDS011;57138;51.326;-0.068;2023-04-08T00:24:27;21.25;;;8.07;;
69841;SDS011;57138;51.326;-0.068;2023-04-08T00:26:53;15.48;;;7.65;;
69841;SDS011;57138;51.326;-0.068;2023-04-08T00:29:20;19.73;;;8.35;;
69841;SDS011;57138;51.326;-0.068;2023-04-08T00:31:46;18.98;;;8.55;;
69841;SDS011;57138;51.326;-0.068;2023-04-08T00:34:11;26.27;;;9.75;;
69841;SDS011;57138;51.326;-0.068;2023-04-08T00:36:37;24.55;;;9.23;;
69841;SDS011;57138;51.326;-0.068;2023-04-08T00:39:04;19.00;;;9.13;;
69841;SDS011;57138;51.326;-0.068;2023-04-08T00:41:32;22.90;;;9.07;;
69841;SDS011;57138;51.326;-0.068;2023-04-08T00:43:59;18.85;;;8.93;;
69841;SDS011;57138;51.326;-0.068;2023-04-08T00:46:25;17.35;;;9.20;;
69841;SDS011;57138;51.326;-0.068;2023-04-08T00:48:51;19.77;;;8.98;;
69841;SDS011;57138;51.326;-0.068;2023-04-08T00:51:17;21.40;;;9.63;;
69841;SDS011;57138;51.326;-0.068;2023-04-08T00:53:43;21.17;;;9.43;;
69841;SDS011;57138;51.326;-0.068;2023-04-08T00:56:09;19.95;;;9.43;;
69841;SDS011;57138;51.326;-0.068;2023-04-08T00:58:35;18.88;;;9.93;;
69841;SDS011;57138;51.326;-0.068;2023-04-08T01:01:06;24.77;;;11.23;;
69841;SDS011;57138;51.326;-0.068;2023-04-08T01:03:57;25.88;;;9.75;;
69841;SDS011;57138;51.326;-0.068;2023-04-08T01:06:50;17.60;;;10.63;;
69841;SDS011;57138;51.326;-0.068;2023-04-08T01:09:32;27.50;;;13.70;;
69841;SDS011;57138;51.326;-0.068;2023-04-08T01:12:06;26.85;;;13.95;;
69841;SDS011;57138;51.326;-0.068;2023-04-08T01:14:41;44.38;;;15.43;;
69841;SDS011;57138;51.326;-0.068;2023-04-08T01:17:10;36.88;;;16.50;;
69841;SDS011;57138;51.326;-0.068;2023-04-08T01:19:37;35.65;;;17.50;;
69841;SDS011;57138;51.326;-0.068;2023-04-08T01:24:43;36.22;;;18.05;;
69841;SDS011;57138;51.326;-0.068;2023-04-08T01:27:11;34.00;;;17.67;;
69841;SDS011;57138;51.326;-0.068;2023-04-08T01:29:39;36.15;;;19.35;;
69841;SDS011;57138;51.326;-0.068;2023-04-08T01:32:06;27.15;;;14.82;;
69841;SDS011;57138;51.326;-0.068;2023-04-08T01:34:33;36.00;;;17.95;;
69841;SDS011;57138;51.326;-0.068;2023-04-08T01:37:01;33.47;;;17.23;;
69841;SDS011;57138;51.326;-0.068;2023-04-08T01:39:28;44.55;;;17.33;;
69841;SDS011;57138;51.326;-0.068;2023-04-08T01:41:55;35.17;;;16.55;;
69841;SDS011;57138;51.326;-0.068;2023-04-08T01:44:23;33.70;;;15.95;;
69841;SDS011;57138;51.326;-0.068;2023-04-08T01:46:50;28.15;;;12.18;;
69841;SDS011;57138;51.326;-0.068;2023-04-08T01:49:18;27.42;;;11.88;;
69841;SDS011;57138;51.326;-0.068;2023-04-08T01:51:46;31.27;;;15.50;;
69841;SDS011;57138;51.326;-0.068;2023-04-08T01:54:12;30.75;;;15.52;;
69841;SDS011;57138;51.326;-0.068;2023-04-08T01:56:39;32.90;;;15.27;;
69841;SDS011;57138;51.326;-0.068;2023-04-08T01:59:08;28.13;;;13.95;;
69841;SDS011;57138;51.326;-0.068;2023-04-08T02:01:37;28.08;;;13.85;;
69841;SDS011;57138;51.326;-0.068;2023-04-08T02:04:04;26.63;;;14.25;;
69841;SDS011;57138;51.326;-0.068;2023-04-08T02:06:30;23.95;;;11.85;;
69841;SDS011;57138;51.326;-0.068;2023-04-08T02:08:58;28.65;;;12.48;;
69841;SDS011;57138;51.326;-0.068;2023-04-08T02:11:25;24.98;;;13.25;;
69841;SDS011;57138;51.326;-0.068;2023-04-08T02:13:51;29.30;;;14.93;;
69841;SDS011;57138;51.326;-0.068;2023-04-08T02:16:32;23.42;;;12.30;;
69841;SDS011;57138;51.326;-0.068;2023-04-08T02:21:41;28.27;;;12.77;;
69841;SDS011;57138;51.326;-0.068;2023-04-08T02:24:11;26.83;;;12.93;;
69841;SDS011;57138;51.326;-0.068;2023-04-08T02:26:39;22.70;;;13.52;;
69841;SDS011;57138;51.326;-0.068;2023-04-08T02:29:09;27.63;;;12.63;;
69841;SDS011;57138;51.326;-0.068;2023-04-08T02:31:38;28.15;;;11.68;;
69841;SDS011;57138;51.326;-0.068;2023-04-08T02:34:07;37.40;;;14.52;;
69841;SDS011;57138;51.326;-0.068;2023-04-08T02:36:34;30.08;;;13.25;;
69841;SDS011;57138;51.326;-0.068;2023-04-08T02:39:02;30.98;;;12.10;;
69841;SDS011;57138;51.326;-0.068;2023-04-08T02:41:28;25.85;;;10.93;;
69841;SDS011;57138;51.326;-0.068;2023-04-08T02:43:54;33.47;;;13.23;;
69841;SDS011;57138;51.326;-0.068;2023-04-08T02:46:20;24.80;;;11.15;;
69841;SDS011;57138;51.326;-0.068;2023-04-08T02:48:46;33.47;;;12.93;;
69841;SDS011;57138;51.326;-0.068;2023-04-08T02:51:12;31.73;;;12.48;;
69841;SDS011;57138;51.326;-0.068;2023-04-08T02:53:37;28.77;;;11.40;;
69841;SDS011;57138;51.326;-0.068;2023-04-08T02:56:03;28.73;;;11.27;;
69841;SDS011;57138;51.326;-0.068;2023-04-08T02:58:29;30.20;;;12.27;;
69841;SDS011;57138;51.326;-0.068;2023-04-08T03:00:54;24.00;;;10.10;;
69841;SDS011;57138;51.326;-0.068;2023-04-08T03:03:20;31.02;;;11.63;;
69841;SDS011;57138;51.326;-0.068;2023-04-08T03:05:52;26.00;;;10.27;;
69841;SDS011;57138;51.326;-0.068;2023-04-08T03:08:18;30.05;;;10.55;;
69841;SDS011;57138;51.326;-0.068;2023-04-08T03:10:45;31.23;;;10.55;;
69841;SDS011;57138;51.326;-0.068;2023-04-08T03:13:12;26.20;;;11.30;;
69841;SDS011;57138;51.326;-0.068;2023-04-08T03:15:37;29.13;;;10.50;;
69841;SDS011;57138;51.326;-0.068;2023-04-08T03:18:03;27.80;;;10.75;;
69841;SDS011;57138;51.326;-0.068;2023-04-08T03:20:28;29.02;;;10.98;;
69841;SDS011;57138;51.326;-0.068;2023-04-08T03:22:54;23.58;;;9.85;;
69841;SDS011;57138;51.326;-0.068;2023-04-08T03:25:20;24.92;;;10.43;;
69841;SDS011;57138;51.326;-0.068;2023-04-08T03:27:45;20.48;;;9.05;;
69841;SDS011;57138;51.326;-0.068;2023-04-08T03:30:11;28.27;;;10.07;;
69841;SDS011;57138;51.326;-0.068;2023-04-08T03:32:36;22.77;;;10.38;;
69841;SDS011;57138;51.326;-0.068;2023-04-08T03:35:02;27.48;;;9.93;;
69841;SDS011;57138;51.326;-0.068;2023-04-08T03:37:28;40.08;;;9.55;;
69841;SDS011;57138;51.326;-0.068;2023-04-08T03:39:54;29.33;;;9.70;;
69841;SDS011;57138;51.326;-0.068;2023-04-08T03:42:20;27.40;;;9.23;;
69841;SDS011;57138;51.326;-0.068;2023-04-08T03:44:45;25.00;;;9.73;;
69841;SDS011;57138;51.326;-0.068;2023-04-08T03:47:11;32.35;;;9.88;;
69841;SDS011;57138;51.326;-0.068;2023-04-08T03:49:36;29.70;;;9.00;;
69841;SDS011;57138;51.326;-0.068;2023-04-08T03:52:01;24.83;;;9.60;;
69841;SDS011;57138;51.326;-0.068;2023-04-08T03:54:27;25.70;;;9.93;;
69841;SDS011;57138;51.326;-0.068;2023-04-08T03:56:52;23.20;;;9.30;;
69841;SDS011;57138;51.326;-0.068;2023-04-08T03:59:17;28.17;;;8.82;;
69841;SDS011;57138;51.326;-0.068;2023-04-08T04:01:43;19.92;;;8.52;;
69841;SDS011;57138;51.326;-0.068;2023-04-08T04:04:08;26.80;;;9.45;;
69841;SDS011;57138;51.326;-0.068;2023-04-08T04:06:34;25.17;;;8.95;;
69841;SDS011;57138;51.326;-0.068;2023-04-08T04:08:59;36.42;;;10.77;;
69841;SDS011;57138;51.326;-0.068;2023-04-08T04:11:24;30.95;;;9.18;;
69841;SDS011;57138;51.326;-0.068;2023-04-08T04:13:50;30.85;;;10.18;;
69841;SDS011;57138;51.326;-0.068;2023-04-08T04:16:15;35.25;;;9.85;;
69841;SDS011;57138;51.326;-0.068;2023-04-08T04:18:41;28.83;;;9.88;;
69841;SDS011;57138;51.326;-0.068;2023-04-08T04:21:06;24.08;;;9.82;;
69841;SDS011;57138;51.326;-0.068;2023-04-08T04:23:33;32.95;;;9.93;;
69841;SDS011;57138;51.326;-0.068;2023-04-08T04:25:58;27.35;;;9.35;;
69841;SDS011;57138;51.326;-0.068;2023-04-08T04:28:23;23.65;;;8.52;;
69841;SDS011;57138;51.326;-0.068;2023-04-08T04:30:49;29.65;;;8.48;;
69841;SDS011;57138;51.326;-0.068;2023-04-08T04:33:14;25.08;;;8.27;;
69841;SDS011;57138;51.326;-0.068;2023-04-08T04:35:40;26.80;;;9.02;;
69841;SDS011;57138;51.326;-0.068;2023-04-08T04:38:05;22.95;;;7.95;;
69841;SDS011;57138;51.326;-0.068;2023-04-08T04:40:37;21.42;;;7.78;;
69841;SDS011;57138;51.326;-0.068;2023-04-08T04:43:03;31.15;;;8.43;;
69841;SDS011;57138;51.326;-0.068;2023-04-08T04:45:28;22.23;;;7.53;;
69841;SDS011;57138;51.326;-0.068;2023-04-08T04:47:54;25.90;;;8.13;;
69841;SDS011;57138;51.326;-0.068;2023-04-08T04:50:19;30.90;;;8.32;;
69841;SDS011;57138;51.326;-0.068;2023-04-08T04:52:45;20.88;;;7.85;;
69841;SDS011;57138;51.326;-0.068;2023-04-08T04:55:10;22.08;;;8.05;;
69841;SDS011;57138;51.326;-0.068;2023-04-08T04:57:35;19.90;;;8.57;;
69841;SDS011;57138;51.326;-0.068;2023-04-08T05:00:01;28.55;;;8.15;;
69841;SDS011;57138;51.326;-0.068;2023-04-08T05:02:26;24.23;;;7.53;;
69841;SDS011;57138;51.326;-0.068;2023-04-08T05:04:52;27.23;;;8.23;;
69841;SDS011;57138;51.326;-0.068;2023-04-08T05:07:17;19.23;;;7.85;;
69841;SDS011;57138;51.326;-0.068;2023-04-08T05:09:43;21.52;;;7.65;;
69841;SDS011;57138;51.326;-0.068;2023-04-08T05:12:08;27.85;;;7.35;;
69841;SDS011;57138;51.326;-0.068;2023-04-08T05:14:34;21.48;;;7.35;;
69841;SDS011;57138;51.326;-0.068;2023-04-08T05:16:59;24.85;;;7.32;;
69841;SDS011;57138;51.326;-0.068;2023-04-08T05:19:25;26.83;;;8.77;;
69841;SDS011;57138;51.326;-0.068;2023-04-08T05:21:50;21.65;;;7.10;;
69841;SDS011;57138;51.326;-0.068;2023-04-08T05:24:16;25.63;;;7.30;;
69841;SDS011;57138;51.326;-0.068;2023-04-08T05:26:41;19.23;;;7.25;;
69841;SDS011;57138;51.326;-0.068;2023-04-08T05:29:06;20.38;;;7.93;;
69841;SDS011;57138;51.326;-0.068;2023-04-08T05:31:32;27.55;;;8.57;;
69841;SDS011;57138;51.326;-0.068;2023-04-08T05:33:57;19.70;;;7.35;;
69841;SDS011;57138;51.326;-0.068;2023-04-08T05:36:22;20.73;;;6.90;;
69841;SDS011;57138;51.326;-0.068;2023-04-08T05:38:48;18.65;;;7.80;;
69841;SDS011;57138;51.326;-0.068;2023-04-08T05:41:13;21.40;;;7.72;;
69841;SDS011;57138;51.326;-0.068;2023-04-08T05:43:39;27.02;;;7.53;;
69841;SDS011;57138;51.326;-0.068;2023-04-08T05:46:08;15.27;;;6.68;;
69841;SDS011;57138;51.326;-0.068;2023-04-08T05:48:34;21.55;;;7.50;;
69841;SDS011;57138;51.326;-0.068;2023-04-08T05:51:00;21.05;;;7.07;;
69841;SDS011;57138;51.326;-0.068;2023-04-08T05:53:26;23.65;;;8.35;;
69841;SDS011;57138;51.326;-0.068;2023-04-08T05:55:51;19.27;;;7.35;;
69841;SDS011;57138;51.326;-0.068;2023-04-08T05:58:17;22.38;;;8.55;;
69841;SDS011;57138;51.326;-0.068;2023-04-08T06:00:42;21.75;;;8.52;;
69841;SDS011;57138;51.326;-0.068;2023-04-08T06:03:08;20.60;;;7.93;;
69841;SDS011;57138;51.326;-0.068;2023-04-08T06:05:33;22.90;;;8.55;;
69841;SDS011;57138;51.326;-0.068;2023-04-08T06:07:59;18.30;;;7.47;;
69841;SDS011;57138;51.326;-0.068;2023-04-08T06:10:24;26.48;;;8.18;;
69841;SDS011;57138;51.326;-0.068;2023-04-08T06:12:50;19.98;;;7.55;;
69841;SDS011;57138;51.326;-0.068;2023-04-08T06:15:15;25.35;;;7.93;;
69841;SDS011;57138;51.326;-0.068;2023-04-08T06:17:40;25.60;;;7.93;;
69841;SDS011;57138;51.326;-0.068;2023-04-08T06:20:06;21.30;;;8.20;;
69841;SDS011;57138;51.326;-0.068;2023-04-08T06:22:33;14.85;;;7.20;;
69841;SDS011;57138;51.326;-0.068;2023-04-08T06:25:00;17.48;;;7.18;;
69841;SDS011;57138;51.326;-0.068;2023-04-08T06:27:26;22.25;;;8.40;;
69841;SDS011;57138;51.326;-0.068;2023-04-08T06:29:51;34.50;;;11.00;;
69841;SDS011;57138;51.326;-0.068;2023-04-08T06:32:17;26.92;;;10.38;;
69841;SDS011;57138;51.326;-0.068;2023-04-08T06:34:46;31.10;;;11.48;;
69841;SDS011;57138;51.326;-0.068;2023-04-08T06:37:12;31.38;;;13.43;;
69841;SDS011;57138;51.326;-0.068;2023-04-08T06:39:37;33.42;;;12.13;;
69841;SDS011;57138;51.326;-0.068;2023-04-08T06:42:03;32.53;;;11.02;;
69841;SDS011;57138;51.326;-0.068;2023-04-08T06:44:28;31.75;;;11.15;;
69841;SDS011;57138;51.326;-0.068;2023-04-08T06:46:53;26.77;;;10.30;;
69841;SDS011;57138;51.326;-0.068;2023-04-08T06:49:20;25.95;;;9.70;;
69841;SDS011;57138;51.326;-0.068;2023-04-08T06:51:45;20.33;;;8.55;;
69841;SDS011;57138;51.326;-0.068;2023-04-08T06:54:11;30.98;;;10.35;;
69841;SDS011;57138;51.326;-0.068;2023-04-08T06:56:36;13.52;;;6.90;;
69841;SDS011;57138;51.326;-0.068;2023-04-08T06:59:02;16.88;;;7.53;;
69841;SDS011;57138;51.326;-0.068;2023-04-08T07:01:28;13.50;;;6.30;;
69841;SDS011;57138;51.326;-0.068;2023-04-08T07:03:54;18.00;;;7.32;;
69841;SDS011;57138;51.326;-0.068;2023-04-08T07:06:20;20.33;;;7.85;;
69841;SDS011;57138;51.326;-0.068;2023-04-08T07:08:46;21.60;;;7.25;;
69841;SDS011;57138;51.326;-0.068;2023-04-08T07:11:11;19.45;;;8.25;;
69841;SDS011;57138;51.326;-0.068;2023-04-08T07:13:37;14.93;;;6.00;;
69841;SDS011;57138;51.326;-0.068;2023-04-08T07:16:02;12.15;;;4.72;;
69841;SDS011;57138;51.326;-0.068;2023-04-08T07:18:27;19.42;;;7.15;;
69841;SDS011;57138;51.326;-0.068;2023-04-08T07:20:53;13.70;;;5.50;;
69841;SDS011;57138;51.326;-0.068;2023-04-08T07:23:19;14.57;;;6.32;;
69841;SDS011;57138;51.326;-0.068;2023-04-08T07:25:45;19.90;;;7.82;;
69841;SDS011;57138;51.326;-0.068;2023-04-08T07:28:10;19.90;;;7.00;;
69841;SDS011;57138;51.326;-0.068;2023-04-08T07:30:36;17.77;;;5.53;;
69841;SDS011;57138;51.326;-0.068;2023-04-08T07:33:01;13.32;;;5.13;;
69841;SDS011;57138;51.326;-0.068;2023-04-08T07:35:27;13.63;;;6.45;;
69841;SDS011;57138;51.326;-0.068;2023-04-08T07:37:53;17.73;;;6.20;;
69841;SDS011;57138;51.326;-0.068;2023-04-08T07:40:19;11.23;;;6.43;;
69841;SDS011;57138;51.326;-0.068;2023-04-08T07:42:45;14.18;;;7.10;;
69841;SDS011;57138;51.326;-0.068;2023-04-08T07:45:11;19.25;;;5.82;;
69841;SDS011;57138;51.326;-0.068;2023-04-08T07:47:36;13.23;;;5.60;;
69841;SDS011;57138;51.326;-0.068;2023-04-08T07:50:02;13.95;;;6.15;;
69841;SDS011;57138;51.326;-0.068;2023-04-08T07:52:31;11.25;;;5.25;;
69841;SDS011;57138;51.326;-0.068;2023-04-08T07:54:56;9.98;;;4.78;;
69841;SDS011;57138;51.326;-0.068;2023-04-08T07:57:22;14.82;;;4.53;;
69841;SDS011;57138;51.326;-0.068;2023-04-08T07:59:48;10.23;;;4.13;;
69841;SDS011;57138;51.326;-0.068;2023-04-08T08:02:13;10.75;;;4.20;;
69841;SDS011;57138;51.326;-0.068;2023-04-08T08:04:39;8.45;;;3.88;;
69841;SDS011;57138;51.326;-0.068;2023-04-08T08:07:04;7.78;;;3.05;;
69841;SDS011;57138;51.326;-0.068;2023-04-08T08:09:29;7.82;;;4.53;;
69841;SDS011;57138;51.326;-0.068;2023-04-08T08:11:55;12.80;;;3.22;;
69841;SDS011;57138;51.326;-0.068;2023-04-08T08:14:21;11.07;;;3.33;;
69841;SDS011;57138;51.326;-0.068;2023-04-08T08:16:46;6.47;;;2.60;;
69841;SDS011;57138;51.326;-0.068;2023-04-08T08:19:13;10.32;;;3.28;;
69841;SDS011;57138;51.326;-0.068;2023-04-08T08:21:39;6.57;;;2.80;;
69841;SDS011;57138;51.326;-0.068;2023-04-08T08:24:05;9.93;;;3.30;;
69841;SDS011;57138;51.326;-0.068;2023-04-08T08:26:33;12.90;;;3.83;;
69841;SDS011;57138;51.326;-0.068;2023-04-08T08:28:59;18.42;;;5.45;;
69841;SDS011;57138;51.326;-0.068;2023-04-08T08:31:25;9.55;;;3.60;;
69841;SDS011;57138;51.326;-0.068;2023-04-08T08:33:50;7.82;;;3.95;;
69841;SDS011;57138;51.326;-0.068;2023-04-08T08:36:16;10.07;;;3.72;;
69841;SDS011;57138;51.326;-0.068;2023-04-08T08:38:41;9.30;;;3.63;;
69841;SDS011;57138;51.326;-0.068;2023-04-08T08:41:07;10.88;;;4.40;;
69841;SDS011;57138;51.326;-0.068;2023-04-08T08:43:32;7.90;;;3.97;;
69841;SDS011;57138;51.326;-0.068;2023-04-08T08:45:58;13.07;;;4.35;;
69841;SDS011;57138;51.326;-0.068;2023-04-08T08:48:24;14.25;;;5.22;;
69841;SDS011;57138;51.326;-0.068;2023-04-08T08:50:50;9.88;;;4.93;;
69841;SDS011;57138;51.326;-0.068;2023-04-08T08:53:16;14.70;;;4.75;;
69841;SDS011;57138;51.326;-0.068;2023-04-08T08:55:41;9.20;;;4.38;;
69841;SDS011;57138;51.326;-0.068;2023-04-08T08:58:08;13.02;;;5.53;;
69841;SDS011;57138;51.326;-0.068;2023-04-08T09:00:34;11.85;;;4.78;;
69841;SDS011;57138;51.326;-0.068;2023-04-08T09:11:16;13.63;;;5.50;;
69841;SDS011;57138;51.326;-0.068;2023-04-08T09:13:44;14.13;;;5.55;;
69841;SDS011;57138;51.326;-0.068;2023-04-08T09:16:14;10.48;;;5.30;;
69841;SDS011;57138;51.326;-0.068;2023-04-08T09:18:42;11.88;;;5.85;;
69841;SDS011;57138;51.326;-0.068;2023-04-08T09:21:09;11.70;;;5.35;;
69841;SDS011;57138;51.326;-0.068;2023-04-08T09:23:49;14.15;;;6.05;;
69841;SDS011;57138;51.326;-0.068;2023-04-08T09:26:22;9.63;;;6.25;;
69841;SDS011;57138;51.326;-0.068;2023-04-08T09:28:58;12.98;;;6.03;;
69841;SDS011;57138;51.326;-0.068;2023-04-08T09:31:29;13.77;;;5.78;;
69841;SDS011;57138;51.326;-0.068;2023-04-08T09:33:57;15.38;;;6.25;;
69841;SDS011;57138;51.326;-0.068;2023-04-08T09:36:23;9.95;;;5.03;;
69841;SDS011;57138;51.326;-0.068;2023-04-08T09:38:53;11.43;;;5.65;;
69841;SDS011;57138;51.326;-0.068;2023-04-08T09:41:19;16.65;;;6.22;;
69841;SDS011;57138;51.326;-0.068;2023-04-08T09:43:48;12.45;;;6.18;;
69841;SDS011;57138;51.326;-0.068;2023-04-08T09:46:31;10.50;;;5.38;;
69841;SDS011;57138;51.326;-0.068;2023-04-08T09:49:09;12.27;;;5.72;;
69841;SDS011;57138;51.326;-0.068;2023-04-08T09:51:52;12.77;;;5.00;;
69841;SDS011;57138;51.326;-0.068;2023-04-08T09:54:25;11.70;;;5.15;;
69841;SDS011;57138;51.326;-0.068;2023-04-08T09:57:01;13.05;;;5.53;;
69841;SDS011;57138;51.326;-0.068;2023-04-08T09:59:34;11.85;;;5.60;;
69841;SDS011;57138;51.326;-0.068;2023-04-08T10:02:04;19.88;;;5.85;;
69841;SDS011;57138;51.326;-0.068;2023-04-08T10:04:34;15.15;;;5.70;;
69841;SDS011;57138;51.326;-0.068;2023-04-08T10:07:07;11.32;;;4.80;;
69841;SDS011;57138;51.326;-0.068;2023-04-08T10:09:33;10.38;;;4.30;;
69841;SDS011;57138;51.326;-0.068;2023-04-08T10:12:00;11.75;;;4.95;;
69841;SDS011;57138;51.326;-0.068;2023-04-08T10:14:26;11.73;;;4.35;;
69841;SDS011;57138;51.326;-0.068;2023-04-08T10:19:54;10.18;;;3.80;;
69841;SDS011;57138;51.326;-0.068;2023-04-08T10:27:41;9.85;;;3.80;;
69841;SDS011;57138;51.326;-0.068;2023-04-08T10:32:53;8.32;;;4.35;;
69841;SDS011;57138;51.326;-0.068;2023-04-08T10:35:36;6.68;;;3.17;;
69841;SDS011;57138;51.326;-0.068;2023-04-08T10:38:06;6.80;;;3.85;;
69841;SDS011;57138;51.326;-0.068;2023-04-08T10:40:36;11.27;;;3.70;;
69841;SDS011;57138;51.326;-0.068;2023-04-08T10:43:03;7.53;;;3.20;;
69841;SDS011;57138;51.326;-0.068;2023-04-08T10:45:32;11.88;;;3.17;;
69841;SDS011;57138;51.326;-0.068;2023-04-08T10:50:42;8.43;;;3.25;;
69841;SDS011;57138;51.326;-0.068;2023-04-08T10:53:08;7.78;;;3.38;;
69841;SDS011;57138;51.326;-0.068;2023-04-08T10:55:34;6.13;;;2.92;;
69841;SDS011;57138;51.326;-0.068;2023-04-08T10:58:06;7.05;;;3.67;;
69841;SDS011;57138;51.326;-0.068;2023-04-08T11:03:03;7.93;;;3.33;;
69841;SDS011;57138;51.326;-0.068;2023-04-08T11:05:31;7.28;;;3.05;;
69841;SDS011;57138;51.326;-0.068;2023-04-08T11:07:58;7.45;;;3.10;;
69841;SDS011;57138;51.326;-0.068;2023-04-08T11:10:24;6.90;;;3.47;;
69841;SDS011;57138;51.326;-0.068;2023-04-08T11:12:52;10.38;;;3.42;;
69841;SDS011;57138;51.326;-0.068;2023-04-08T11:15:19;9.23;;;3.60;;
69841;SDS011;57138;51.326;-0.068;2023-04-08T11:17:45;8.82;;;3.63;;
69841;SDS011;57138;51.326;-0.068;2023-04-08T11:20:12;9.90;;;4.20;;
69841;SDS011;57138;51.326;-0.068;2023-04-08T11:22:38;7.97;;;3.92;;
69841;SDS011;57138;51.326;-0.068;2023-04-08T11:25:04;8.13;;;4.22;;
69841;SDS011;57138;51.326;-0.068;2023-04-08T11:27:33;8.70;;;4.63;;
69841;SDS011;57138;51.326;-0.068;2023-04-08T11:29:59;9.13;;;4.57;;
69841;SDS011;57138;51.326;-0.068;2023-04-08T11:32:27;12.50;;;5.40;;
69841;SDS011;57138;51.326;-0.068;2023-04-08T11:34:53;12.00;;;4.70;;
69841;SDS011;57138;51.326;-0.068;2023-04-08T11:37:19;17.48;;;5.25;;
69841;SDS011;57138;51.326;-0.068;2023-04-08T11:39:46;11.02;;;4.68;;
69841;SDS011;57138;51.326;-0.068;2023-04-08T11:42:28;8.93;;;4.40;;
69841;SDS011;57138;51.326;-0.068;2023-04-08T11:44:55;11.50;;;5.78;;
69841;SDS011;57138;51.326;-0.068;2023-04-08T11:47:21;9.40;;;4.45;;
69841;SDS011;57138;51.326;-0.068;2023-04-08T11:49:54;10.20;;;4.40;;
69841;SDS011;57138;51.326;-0.068;2023-04-08T11:52:20;10.68;;;4.20;;
69841;SDS011;57138;51.326;-0.068;2023-04-08T11:54:46;10.15;;;4.03;;
69841;SDS011;57138;51.326;-0.068;2023-04-08T11:57:12;7.70;;;4.30;;
69841;SDS011;57138;51.326;-0.068;2023-04-08T11:59:39;10.80;;;3.97;;
69841;SDS011;57138;51.326;-0.068;2023-04-08T12:02:05;12.95;;;5.25;;
69841;SDS011;57138;51.326;-0.068;2023-04-08T12:04:31;10.52;;;5.28;;
69841;SDS011;57138;51.326;-0.068;2023-04-08T12:06:58;7.90;;;3.70;;
69841;SDS011;57138;51.326;-0.068;2023-04-08T12:09:23;9.65;;;3.80;;
69841;SDS011;57138;51.326;-0.068;2023-04-08T12:11:49;8.27;;;4.32;;
69841;SDS011;57138;51.326;-0.068;2023-04-08T12:14:14;10.02;;;4.18;;
69841;SDS011;57138;51.326;-0.068;2023-04-08T12:16:40;9.40;;;3.72;;
69841;SDS011;57138;51.326;-0.068;2023-04-08T12:19:06;11.93;;;5.28;;
69841;SDS011;57138;51.326;-0.068;2023-04-08T12:21:32;13.82;;;3.92;;
69841;SDS011;57138;51.326;-0.068;2023-04-08T12:23:58;7.03;;;3.70;;
69841;SDS011;57138;51.326;-0.068;2023-04-08T12:26:24;13.30;;;4.43;;
69841;SDS011;57138;51.326;-0.068;2023-04-08T12:28:51;12.38;;;4.15;;
69841;SDS011;57138;51.326;-0.068;2023-04-08T12:31:17;10.35;;;3.38;;
69841;SDS011;57138;51.326;-0.068;2023-04-08T12:33:43;9.18;;;3.72;;
69841;SDS011;57138;51.326;-0.068;2023-04-08T12:36:09;8.32;;;3.35;;
69841;SDS011;57138;51.326;-0.068;2023-04-08T12:38:35;8.00;;;3.53;;
69841;SDS011;57138;51.326;-0.068;2023-04-08T12:41:01;11.43;;;3.80;;
69841;SDS011;57138;51.326;-0.068;2023-04-08T12:43:27;8.90;;;3.13;;
69841;SDS011;57138;51.326;-0.068;2023-04-08T12:45:52;11.10;;;3.67;;
69841;SDS011;57138;51.326;-0.068;2023-04-08T12:48:18;7.45;;;3.25;;
69841;SDS011;57138;51.326;-0.068;2023-04-08T12:50:44;11.25;;;3.05;;
69841;SDS011;57138;51.326;-0.068;2023-04-08T12:53:10;8.57;;;3.35;;
69841;SDS011;57138;51.326;-0.068;2023-04-08T12:55:36;15.82;;;5.65;;
69841;SDS011;57138;51.326;-0.068;2023-04-08T12:58:02;8.02;;;3.42;;
69841;SDS011;57138;51.326;-0.068;2023-04-08T13:00:29;6.00;;;2.83;;
69841;SDS011;57138;51.326;-0.068;2023-04-08T13:02:55;7.00;;;3.00;;
69841;SDS011;57138;51.326;-0.068;2023-04-08T13:05:20;5.93;;;2.67;;
69841;SDS011;57138;51.326;-0.068;2023-04-08T13:07:46;6.13;;;2.65;;
69841;SDS011;57138;51.326;-0.068;2023-04-08T13:10:12;6.68;;;2.83;;
69841;SDS011;57138;51.326;-0.068;2023-04-08T13:12:39;7.57;;;3.50;;
69841;SDS011;57138;51.326;-0.068;2023-04-08T13:15:05;7.05;;;3.60;;
69841;SDS011;57138;51.326;-0.068;2023-04-08T13:17:31;6.63;;;2.97;;
69841;SDS011;57138;51.326;-0.068;2023-04-08T13:19:57;7.68;;;3.42;;
69841;SDS011;57138;51.326;-0.068;2023-04-08T13:22:23;11.30;;;3.25;;
69841;SDS011;57138;51.326;-0.068;2023-04-08T13:24:48;8.07;;;3.38;;
69841;SDS011;57138;51.326;-0.068;2023-04-08T13:27:14;7.35;;;3.15;;
69841;SDS011;57138;51.326;-0.068;2023-04-08T13:29:40;8.82;;;2.70;;
69841;SDS011;57138;51.326;-0.068;2023-04-08T13:32:06;9.90;;;3.75;;
69841;SDS011;57138;51.326;-0.068;2023-04-08T13:34:32;6.75;;;2.92;;
69841;SDS011;57138;51.326;-0.068;2023-04-08T13:36:58;6.88;;;2.88;;
69841;SDS011;57138;51.326;-0.068;2023-04-08T13:39:23;9.35;;;3.17;;
69841;SDS011;57138;51.326;-0.068;2023-04-08T13:41:49;7.88;;;3.83;;
69841;SDS011;57138;51.326;-0.068;2023-04-08T13:44:16;9.23;;;4.25;;
69841;SDS011;57138;51.326;-0.068;2023-04-08T13:46:41;9.13;;;3.50;;
69841;SDS011;57138;51.326;-0.068;2023-04-08T13:49:07;5.45;;;2.75;;
69841;SDS011;57138;51.326;-0.068;2023-04-08T13:51:33;7.28;;;2.90;;
69841;SDS011;57138;51.326;-0.068;2023-04-08T13:53:59;6.22;;;3.00;;
69841;SDS011;57138;51.326;-0.068;2023-04-08T13:56:25;5.80;;;2.65;;
69841;SDS011;57138;51.326;-0.068;2023-04-08T13:58:50;6.97;;;2.90;;
69841;SDS011;57138;51.326;-0.068;2023-04-08T14:01:16;6.28;;;2.75;;
69841;SDS011;57138;51.326;-0.068;2023-04-08T14:03:42;10.93;;;3.85;;
69841;SDS011;57138;51.326;-0.068;2023-04-08T14:06:08;7.30;;;2.90;;
69841;SDS011;57138;51.326;-0.068;2023-04-08T14:08:33;9.10;;;5.30;;
69841;SDS011;57138;51.326;-0.068;2023-04-08T14:10:59;6.00;;;3.38;;
69841;SDS011;57138;51.326;-0.068;2023-04-08T14:13:24;9.07;;;3.30;;
69841;SDS011;57138;51.326;-0.068;2023-04-08T14:15:50;7.72;;;2.67;;
69841;SDS011;57138;51.326;-0.068;2023-04-08T14:18:17;6.32;;;2.72;;
69841;SDS011;57138;51.326;-0.068;2023-04-08T14:20:43;20.42;;;11.80;;
69841;SDS011;57138;51.326;-0.068;2023-04-08T14:23:08;17.80;;;10.07;;
69841;SDS011;57138;51.326;-0.068;2023-04-08T14:25:35;34.13;;;21.77;;
69841;SDS011;57138;51.326;-0.068;2023-04-08T14:28:00;31.70;;;14.77;;
69841;SDS011;57138;51.326;-0.068;2023-04-08T14:30:26;15.10;;;6.80;;
69841;SDS011;57138;51.326;-0.068;2023-04-08T14:32:52;10.52;;;4.75;;
69841;SDS011;57138;51.326;-0.068;2023-04-08T14:35:18;10.13;;;3.50;;
69841;SDS011;57138;51.326;-0.068;2023-04-08T14:37:44;8.63;;;3.33;;
69841;SDS011;57138;51.326;-0.068;2023-04-08T14:40:09;12.90;;;3.30;;
69841;SDS011;57138;51.326;-0.068;2023-04-08T14:42:35;7.15;;;2.70;;
69841;SDS011;57138;51.326;-0.068;2023-04-08T14:45:01;9.43;;;3.63;;
69841;SDS011;57138;51.326;-0.068;2023-04-08T14:47:28;5.63;;;2.47;;